Main page
METAR-TAF:

METAR-TAF

Airports :

Reykjavík Airport

Reykjavík, Iceland

latitude: 64-08N, longitude: 021-54W, elevation: 54 m

Current weather observation

The report was made 36 minutes ago, at 04:00 UTC
Wind 11 kt from the West
Temperature 9°C
Humidity 87%
Pressure 993 hPa
Visibility 10 km or more
Overcast at a height of 800 ft

METAR: BIRK 160400Z 27011KT 9999 OVC008 09/07 Q0993

Time: 04:36 (04:36 UTC)

Forecast

The report was made 3 hours and 3 minutes ago, at 01:33 UTC
Forecast valid from 16 at 03 UTC to 17 at 03 UTC
Wind 10 kt from the North/Northwest
Visibility 10 km or more
Few clouds at a height of 2500 ft
Scattered clouds at a height of 4000 ft
Temporary
from 16 at 03 UTC to 16 at 07 UTC
Broken clouds at a height of 1500 ft
Becoming
from 16 at 21 UTC to 16 at 24 UTC
Wind 10 kt from the East/Northeast

TAF: BIRK 160133Z 1603/1703 34010KT 9999 FEW025 SCT040 TX15/1615Z TN09/1606Z TEMPO 1603/1607 BKN015 BECMG 1621/1624 07010KT

Weather observations and forecasts of more than 4000 airports (METAR and TAF reports).

The available stations are represented by yellow and red dots on the map.

Hover mouse over dot to see the name of the station.

Then click to see weather observations and forecasts.

To change the map : click on the green buttons with a black cross to zoom in, on the green button with a dash to zoom out, or on the green arrows for adjacent maps.


METAR-TAF: